Time;durP1;ratioP1;P1;durP2;ratioP2;P2;SDS_P1;SDS_P2;PMS_P1;PMS_P2;Temp;Humidity;BMP_temperature;BMP_pressure;BME280_temperature;BME280_humidity;BME280_pressure;Samples;Min_cycle;Max_cycle;Signal;HPM_P1;HPM_P2
2024/02/06 00:02:12;;;;;;;53.88;24.85;;;;;;;8.24;100.00;101505.84;4985918;28;20038;-63
2024/02/06 00:04:38;;;;;;;50.15;24.73;;;;;;;8.24;100.00;101505.84;4991330;28;20041;-63
2024/02/06 00:07:05;;;;;;;47.22;23.20;;;;;;;8.25;100.00;101502.34;4997867;28;20569;-63
2024/02/06 00:09:30;;;;;;;54.30;24.98;;;;;;;8.26;100.00;101506.59;4993834;28;20062;-63
2024/02/06 00:11:56;;;;;;;47.25;22.48;;;;;;;8.26;100.00;101503.16;4996926;28;20038;-63
2024/02/06 00:14:21;;;;;;;50.90;24.52;;;;;;;8.25;100.00;101502.34;4999332;28;20026;-63
2024/02/06 00:16:47;;;;;;;51.25;23.65;;;;;;;8.25;100.00;101491.94;4990702;28;20034;-63
2024/02/06 00:19:12;;;;;;;54.67;24.08;;;;;;;8.26;100.00;101493.59;4991994;28;20033;-63
2024/02/06 00:21:37;;;;;;;47.40;21.30;;;;;;;8.26;100.00;101488.41;4991873;28;20030;-62
2024/02/06 00:24:03;;;;;;;47.42;23.00;;;;;;;8.25;100.00;101485.94;4995205;28;20175;-63
2024/02/06 00:26:29;;;;;;;50.92;23.30;;;;;;;8.25;100.00;101475.53;4990492;28;20027;-62
2024/02/06 00:28:54;;;;;;;54.28;23.80;;;;;;;8.23;100.00;101474.81;4991377;28;20064;-63
2024/02/06 00:31:20;;;;;;;54.75;22.40;;;;;;;8.24;100.00;101471.28;4978970;28;20034;-63
2024/02/06 00:33:45;;;;;;;44.33;21.75;;;;;;;8.23;100.00;101478.25;4995977;28;20038;-63
2024/02/06 00:36:11;;;;;;;52.70;22.60;;;;;;;8.24;100.00;101477.31;4997503;28;20073;-63
2024/02/06 00:38:36;;;;;;;50.58;23.42;;;;;;;8.25;100.00;101473.78;4999909;28;20528;-63
2024/02/06 00:41:02;;;;;;;44.67;21.58;;;;;;;8.23;100.00;101472.22;4995688;28;20030;-63
2024/02/06 00:43:28;;;;;;;44.47;22.30;;;;;;;8.23;100.00;101469.63;4990879;28;20041;-63
2024/02/06 00:45:53;;;;;;;48.78;23.50;;;;;;;8.22;100.00;101466.19;4987687;28;20643;-63
2024/02/06 00:48:19;;;;;;;50.45;23.02;;;;;;;8.23;100.00;101475.63;4988914;28;20043;-63
2024/02/06 00:50:45;;;;;;;48.25;22.92;;;;;;;8.25;100.00;101471.19;4990712;28;20053;-63
2024/02/06 00:53:11;;;;;;;47.95;22.92;;;;;;;8.26;100.00;101467.66;4985742;28;20057;-63
2024/02/06 00:55:37;;;;;;;49.22;22.15;;;;;;;8.26;100.00;101459.84;4985743;28;20462;-62
2024/02/06 00:58:02;;;;;;;44.75;21.05;;;;;;;8.22;100.00;101455.81;4993005;28;20034;-63
2024/02/06 01:00:28;;;;;;;49.53;20.85;;;;;;;8.21;100.00;101459.34;4998955;28;20026;-62
2024/02/06 01:02:53;;;;;;;47.30;22.85;;;;;;;8.20;100.00;101462.88;4995253;28;20053;-62
2024/02/06 01:05:19;;;;;;;51.30;22.45;;;;;;;8.23;100.00;101470.44;4991637;28;20045;-62
2024/02/06 01:07:46;;;;;;;56.90;22.38;;;;;;;8.28;100.00;101465.78;4994373;28;20034;-63
2024/02/06 01:10:12;;;;;;;47.75;20.42;;;;;;;8.31;100.00;101467.34;4994265;28;20121;-63
2024/02/06 01:12:37;;;;;;;49.15;20.75;;;;;;;8.28;100.00;101478.75;4993627;28;20109;-63
2024/02/06 01:15:03;;;;;;;40.20;20.55;;;;;;;8.27;100.00;101466.72;4988334;28;20022;-63
2024/02/06 01:17:29;;;;;;;42.30;20.58;;;;;;;8.37;100.00;101466.13;4988629;28;20455;-63
2024/02/06 01:19:54;;;;;;;48.72;20.75;;;;;;;8.38;100.00;101463.41;4993496;28;20133;-63
2024/02/06 01:22:20;;;;;;;42.90;19.17;;;;;;;8.38;100.00;101466.00;5001120;28;20038;-63
2024/02/06 01:24:45;;;;;;;40.63;20.23;;;;;;;8.37;100.00;101459.16;4987150;28;20037;-63
2024/02/06 01:27:11;;;;;;;45.28;19.48;;;;;;;8.35;100.00;101450.63;4991265;28;20057;-63
2024/02/06 01:29:37;;;;;;;45.20;20.40;;;;;;;8.32;100.00;101446.50;4975718;28;20042;-62
2024/02/06 01:32:03;;;;;;;45.17;19.45;;;;;;;8.32;100.00;101448.22;4989386;28;20034;-63
2024/02/06 01:34:29;;;;;;;42.92;20.20;;;;;;;8.34;100.00;101442.94;4993778;28;20026;-63
2024/02/06 01:36:54;;;;;;;41.67;19.25;;;;;;;8.32;100.00;101430.91;4985363;28;20117;-63
2024/02/06 01:39:19;;;;;;;43.10;19.75;;;;;;;8.30;100.00;101437.09;4992202;28;20088;-63
2024/02/06 01:41:45;;;;;;;36.78;19.10;;;;;;;8.27;100.00;101430.38;4991029;28;20104;-63
2024/02/06 01:44:10;;;;;;;39.40;18.48;;;;;;;8.27;100.00;101434.72;4987572;28;20051;-63
2024/02/06 01:46:36;;;;;;;38.22;16.42;;;;;;;8.27;100.00;101427.75;4990520;28;20157;-63
2024/02/06 01:49:04;;;;;;;44.13;19.95;;;;;;;8.27;100.00;101422.56;4991170;28;20022;-63
2024/02/06 01:51:34;;;;;;;39.63;18.60;;;;;;;8.27;100.00;101427.75;4991583;28;20332;-63
2024/02/06 01:54:00;;;;;;;47.97;17.58;;;;;;;8.26;100.00;101418.31;4993514;28;20739;-63
2024/02/06 01:56:26;;;;;;;38.95;18.48;;;;;;;8.25;100.00;101428.81;4987060;28;20031;-63
2024/02/06 01:58:53;;;;;;;34.35;18.05;;;;;;;8.22;100.00;101414.28;4976945;28;20477;-62
2024/02/06 02:01:20;;;;;;;38.25;19.67;;;;;;;8.22;100.00;101424.66;4985579;28;20118;-63
2024/02/06 02:03:47;;;;;;;38.03;17.02;;;;;;;8.22;100.00;101419.47;4987983;28;20037;-63
2024/02/06 02:06:14;;;;;;;37.60;19.23;;;;;;;8.21;100.00;101412.59;4987824;28;20482;-62
2024/02/06 02:08:40;;;;;;;35.03;17.73;;;;;;;8.20;100.00;101410.94;4992289;28;20038;-62
2024/02/06 02:11:05;;;;;;;36.67;17.38;;;;;;;8.19;100.00;101405.88;4986949;28;20088;-62
2024/02/06 02:13:31;;;;;;;34.85;18.38;;;;;;;8.17;100.00;101412.94;4991742;28;20495;-63
2024/02/06 02:15:57;;;;;;;38.90;18.55;;;;;;;8.14;100.00;101407.94;4994628;28;20109;-63
2024/02/06 02:18:30;;;;;;;38.67;18.23;;;;;;;8.14;100.00;101400.97;4996788;28;20161;-63
2024/02/06 02:20:55;;;;;;;40.60;16.85;;;;;;;8.14;100.00;101407.94;4993036;28;20370;-63
2024/02/06 02:23:21;;;;;;;35.67;17.63;;;;;;;8.15;100.00;101397.44;4998695;28;20045;-63
2024/02/06 02:25:47;;;;;;;40.70;19.40;;;;;;;8.14;100.00;101397.56;4998259;28;20183;-62
2024/02/06 02:28:14;;;;;;;47.28;20.75;;;;;;;8.17;100.00;101392.97;4996195;28;20038;-63
2024/02/06 02:30:40;;;;;;;45.80;19.73;;;;;;;8.19;100.00;101401.50;4995245;28;20033;-63
2024/02/06 02:33:06;;;;;;;47.72;23.67;;;;;;;8.22;100.00;101398.69;4985894;28;20477;-63
2024/02/06 02:35:31;;;;;;;48.72;22.90;;;;;;;8.24;100.00;101390.78;4984899;28;20058;-63
2024/02/06 02:37:57;;;;;;;55.20;23.98;;;;;;;8.24;100.00;101386.44;4988168;28;20053;-63
2024/02/06 02:40:23;;;;;;;53.28;24.85;;;;;;;8.24;100.00;101385.59;4993606;28;20037;-63
2024/02/06 02:42:49;;;;;;;54.88;25.73;;;;;;;8.24;100.00;101380.41;4992168;28;20061;-62
2024/02/06 02:45:14;;;;;;;59.22;26.48;;;;;;;8.23;100.00;101383.94;4992301;28;20022;-63
2024/02/06 02:47:41;;;;;;;60.55;30.77;;;;;;;8.26;100.00;101379.38;4988238;28;20042;-63
2024/02/06 02:50:06;;;;;;;59.22;27.52;;;;;;;8.26;100.00;101375.94;4995337;28;20117;-63
2024/02/06 02:52:32;;;;;;;60.00;27.35;;;;;;;8.24;100.00;101370.84;4990080;28;20443;-63
2024/02/06 02:54:57;;;;;;;64.57;28.13;;;;;;;8.24;100.00;101365.66;4990298;28;20040;-63
2024/02/06 02:57:23;;;;;;;60.30;27.13;;;;;;;8.22;100.00;101370.13;4977345;28;20030;-62
2024/02/06 02:59:48;;;;;;;64.72;28.70;;;;;;;8.20;100.00;101364.22;4984884;28;20026;-63
2024/02/06 03:02:13;;;;;;;52.80;25.73;;;;;;;8.20;100.00;101363.38;4988954;28;20030;-63
2024/02/06 03:04:40;;;;;;;57.28;27.40;;;;;;;8.18;100.00;101360.91;4992571;28;20045;-63
2024/02/06 03:07:05;;;;;;;59.22;26.25;;;;;;;8.19;100.00;101361.72;4994986;28;20033;-63
2024/02/06 03:09:31;;;;;;;53.85;25.80;;;;;;;8.18;100.00;101353.13;4990814;28;20038;-63
2024/02/06 03:11:56;;;;;;;51.58;25.63;;;;;;;8.16;100.00;101357.59;4988550;28;20030;-63
2024/02/06 03:14:21;;;;;;;56.28;26.75;;;;;;;8.15;100.00;101350.72;4993134;28;20022;-62
2024/02/06 03:16:47;;;;;;;57.83;28.33;;;;;;;8.18;100.00;101354.88;4989689;28;20038;-63
2024/02/06 03:19:13;;;;;;;55.72;27.52;;;;;;;8.18;100.00;101349.69;4988681;28;20023;-63
2024/02/06 03:21:38;;;;;;;53.35;26.75;;;;;;;8.17;100.00;101348.84;4991248;28;20177;-63
2024/02/06 03:24:04;;;;;;;56.33;26.73;;;;;;;8.16;100.00;101343.78;4986832;28;20066;-63
2024/02/06 03:26:29;;;;;;;57.08;28.38;;;;;;;8.18;100.00;101340.13;4992019;28;20073;-63
2024/02/06 03:28:55;;;;;;;57.58;28.90;;;;;;;8.25;100.00;101341.38;4985955;28;20034;-62
2024/02/06 03:31:20;;;;;;;55.28;29.27;;;;;;;8.28;100.00;101338.56;4991785;28;20375;-63
2024/02/06 03:33:45;;;;;;;58.53;27.42;;;;;;;8.29;100.00;101344.56;4982850;28;20026;-63
2024/02/06 03:36:11;;;;;;;53.45;26.48;;;;;;;8.25;100.00;101338.75;4990342;28;20026;-64
2024/02/06 03:38:36;;;;;;;58.75;27.65;;;;;;;8.23;100.00;101337.22;4983733;28;20453;-63
2024/02/06 03:41:03;;;;;;;52.55;23.88;;;;;;;8.20;100.00;101335.66;4992354;28;20124;-63
2024/02/06 03:43:29;;;;;;;59.55;24.05;;;;;;;8.17;100.00;101341.06;4992135;28;20519;-63
2024/02/06 03:45:54;;;;;;;59.00;26.55;;;;;;;8.15;100.00;101337.75;4991438;28;20776;-62
2024/02/06 03:48:20;;;;;;;51.38;25.50;;;;;;;8.16;100.00;101338.59;4977496;28;20500;-63
2024/02/06 03:50:45;;;;;;;44.90;22.25;;;;;;;8.17;100.00;101335.88;4985223;28;20030;-63
2024/02/06 03:53:11;;;;;;;58.08;24.80;;;;;;;8.16;100.00;101335.97;5001030;28;20030;-63
2024/02/06 03:55:36;;;;;;;53.85;25.90;;;;;;;8.16;100.00;101338.59;4996079;28;20052;-63
2024/02/06 03:58:03;;;;;;;54.35;25.40;;;;;;;8.16;100.00;101343.78;4982451;28;20513;-63
2024/02/06 04:00:29;;;;;;;50.28;26.35;;;;;;;8.16;100.00;101342.00;4994908;28;20046;-63
2024/02/06 04:02:55;;;;;;;50.38;24.92;;;;;;;8.15;100.00;101342.13;4992858;28;20111;-63
2024/02/06 04:05:20;;;;;;;59.45;26.48;;;;;;;8.14;100.00;101341.28;5002846;28;20080;-63
2024/02/06 04:07:45;;;;;;;57.33;26.63;;;;;;;8.17;100.00;101348.03;4999221;28;20554;-63
2024/02/06 04:10:11;;;;;;;50.28;24.73;;;;;;;8.18;100.00;101350.53;4990718;28;20042;-63
2024/02/06 04:12:36;;;;;;;50.17;25.27;;;;;;;8.17;100.00;101350.63;4991567;28;20084;-63
2024/02/06 04:15:04;;;;;;;53.90;24.98;;;;;;;8.14;100.00;101349.06;4991499;28;20516;-62
2024/02/06 04:17:30;;;;;;;56.90;27.20;;;;;;;8.16;100.00;101349.78;4973836;28;20037;-63
2024/02/06 04:19:55;;;;;;;51.10;27.00;;;;;;;8.17;100.00;101348.84;4995866;28;20045;-62
2024/02/06 04:22:20;;;;;;;61.28;27.52;;;;;;;8.17;100.00;101353.22;4979962;28;20043;-63
2024/02/06 04:24:47;;;;;;;60.20;28.35;;;;;;;8.15;100.00;101342.94;4992629;28;20370;-63
2024/02/06 04:27:12;;;;;;;54.17;26.05;;;;;;;8.12;100.00;101340.56;4993922;28;20057;-63
2024/02/06 04:29:38;;;;;;;55.88;25.48;;;;;;;8.11;100.00;101338.06;4993473;28;20049;-63
2024/02/06 04:32:04;;;;;;;49.85;24.90;;;;;;;8.10;100.00;101339.00;4992602;28;20042;-63
2024/02/06 04:34:29;;;;;;;46.13;24.40;;;;;;;8.11;100.00;101336.31;4994702;28;20474;-63
2024/02/06 04:36:55;;;;;;;57.30;26.20;;;;;;;8.10;100.00;101329.44;4985144;28;20073;-63
2024/02/06 04:39:20;;;;;;;61.55;25.65;;;;;;;8.09;100.00;101329.56;4994133;28;20026;-63
2024/02/06 04:41:46;;;;;;;51.50;25.38;;;;;;;8.08;100.00;101338.28;4992203;28;20509;-63
2024/02/06 04:44:12;;;;;;;60.35;26.05;;;;;;;8.08;100.00;101333.91;4993217;28;20517;-63
2024/02/06 04:46:38;;;;;;;54.25;24.63;;;;;;;8.06;100.00;101333.19;4974793;28;20042;-63
2024/02/06 04:49:03;;;;;;;47.45;24.73;;;;;;;8.06;100.00;101327.19;4990823;28;20030;-63
2024/02/06 04:51:29;;;;;;;50.97;24.35;;;;;;;8.05;100.00;101328.94;4997841;28;20564;-63
2024/02/06 04:53:54;;;;;;;52.65;23.63;;;;;;;8.04;100.00;101329.88;4992474;28;20449;-63
2024/02/06 04:56:22;;;;;;;52.35;23.45;;;;;;;8.03;100.00;101315.28;4994271;28;20022;-63
2024/02/06 04:58:49;;;;;;;55.05;25.50;;;;;;;8.05;100.00;101317.72;4993470;28;20037;-63
2024/02/06 05:01:15;;;;;;;48.65;23.60;;;;;;;8.05;100.00;101323.75;4996068;28;20034;-63
2024/02/06 05:03:41;;;;;;;46.70;22.10;;;;;;;8.03;100.00;101319.63;5001252;28;20026;-62
2024/02/06 05:06:07;;;;;;;44.35;22.65;;;;;;;8.03;100.00;101325.66;5000330;28;20120;-63
2024/02/06 05:08:32;;;;;;;49.65;23.92;;;;;;;8.02;100.00;101312.78;4998492;28;20350;-63
2024/02/06 05:10:57;;;;;;;46.53;21.80;;;;;;;8.01;100.00;101311.97;4992779;28;20026;-63
2024/02/06 05:13:23;;;;;;;43.70;22.23;;;;;;;7.97;100.00;101308.75;4997691;28;20034;-63
2024/02/06 05:15:48;;;;;;;40.63;20.73;;;;;;;7.98;100.00;101313.00;4989050;28;20023;-63
2024/02/06 05:18:14;;;;;;;47.78;21.25;;;;;;;7.96;100.00;101303.66;4992147;28;20027;-63
2024/02/06 05:20:39;;;;;;;43.63;21.70;;;;;;;7.94;100.00;101311.56;4995926;28;20033;-63
2024/02/06 05:23:04;;;;;;;41.50;19.30;;;;;;;7.94;100.00;101305.53;4991601;28;20113;-63
2024/02/06 05:25:30;;;;;;;35.95;19.05;;;;;;;7.92;100.00;101308.22;4988971;28;20030;-63
2024/02/06 05:27:56;;;;;;;35.60;18.98;;;;;;;7.90;100.00;101310.09;4980676;28;20033;-63
2024/02/06 05:30:23;;;;;;;36.25;18.98;;;;;;;7.91;100.00;101303.97;4997959;28;20115;-63
2024/02/06 05:32:48;;;;;;;38.40;19.17;;;;;;;7.90;100.00;101310.09;4991217;28;20041;-62
2024/02/06 05:35:13;;;;;;;40.88;18.63;;;;;;;7.89;100.00;101303.25;4993139;28;20497;-63
2024/02/06 05:37:39;;;;;;;32.33;17.10;;;;;;;7.88;100.00;101305.97;4980114;28;20049;-63
2024/02/06 05:40:06;;;;;;;38.95;18.23;;;;;;;7.86;100.00;101307.81;4994172;28;20040;-63
2024/02/06 05:42:32;;;;;;;41.60;18.88;;;;;;;7.88;100.00;101311.16;4992361;28;20042;-63
2024/02/06 05:44:57;;;;;;;35.85;17.70;;;;;;;7.89;100.00;101307.63;4990794;28;20486;-63
2024/02/06 05:47:23;;;;;;;36.00;17.17;;;;;;;7.91;100.00;101305.75;4992377;28;20378;-63
2024/02/06 05:49:48;;;;;;;32.17;17.25;;;;;;;7.92;100.00;101304.81;4995208;28;20412;-64
2024/02/06 05:52:13;;;;;;;35.22;18.23;;;;;;;7.92;100.00;101302.22;4992171;28;20034;-63
2024/02/06 05:54:39;;;;;;;38.40;17.33;;;;;;;7.95;100.00;101302.00;5000643;28;20029;-63
2024/02/06 05:57:04;;;;;;;33.95;17.88;;;;;;;7.96;100.00;101303.66;4999516;28;20402;-63
2024/02/06 05:59:30;;;;;;;29.98;16.08;;;;;;;7.96;100.00;101303.66;4997316;28;20496;-63
2024/02/06 06:01:55;;;;;;;37.70;17.02;;;;;;;7.94;100.00;101306.38;4994417;28;20026;-63
2024/02/06 06:04:21;;;;;;;29.60;15.75;;;;;;;7.91;100.00;101308.34;5004658;28;20047;-63
2024/02/06 06:06:47;;;;;;;30.48;16.38;;;;;;;7.90;100.00;101304.09;4983705;28;20346;-63
2024/02/06 06:09:12;;;;;;;34.35;16.90;;;;;;;7.90;100.00;101310.09;4998354;28;20092;-63
2024/02/06 06:11:38;;;;;;;27.02;15.43;;;;;;;7.92;100.00;101316.03;4999984;28;20041;-63
2024/02/06 06:14:03;;;;;;;37.70;18.48;;;;;;;7.93;100.00;101311.66;4996765;28;20405;-63
2024/02/06 06:16:29;;;;;;;32.25;17.75;;;;;;;7.94;100.00;101318.50;5002712;28;20026;-63
2024/02/06 06:18:54;;;;;;;29.88;16.27;;;;;;;7.94;100.00;101311.56;4997367;28;20057;-63
2024/02/06 06:21:20;;;;;;;27.15;14.95;;;;;;;7.95;100.00;101309.78;4998353;28;20045;-64
2024/02/06 06:23:45;;;;;;;27.52;15.10;;;;;;;7.93;100.00;101309.06;4997101;28;20038;-63
2024/02/06 06:26:11;;;;;;;26.50;15.38;;;;;;;7.93;100.00;101311.66;5000921;28;20026;-63
2024/02/06 06:28:36;;;;;;;29.80;14.90;;;;;;;7.92;100.00;101308.22;5004357;28;20040;-63
2024/02/06 06:31:02;;;;;;;32.70;16.15;;;;;;;7.92;100.00;101304.81;4992950;28;20118;-63
2024/02/06 06:33:27;;;;;;;35.78;17.27;;;;;;;7.92;100.00;101307.41;5004152;28;20037;-63
2024/02/06 06:35:53;;;;;;;28.40;16.20;;;;;;;7.93;100.00;101306.47;5002008;28;20087;-63
2024/02/06 06:38:18;;;;;;;30.20;16.27;;;;;;;7.96;100.00;101314.03;5000269;28;20617;-63
2024/02/06 06:40:44;;;;;;;37.88;17.25;;;;;;;7.97;100.00;101310.50;4995792;28;20042;-62
2024/02/06 06:43:10;;;;;;;34.50;16.63;;;;;;;7.96;100.00;101306.25;4994795;28;20037;-63
2024/02/06 06:45:35;;;;;;;32.20;16.13;;;;;;;7.98;100.00;101312.16;5002521;28;20101;-63
2024/02/06 06:48:01;;;;;;;30.17;16.02;;;;;;;7.99;100.00;101303.44;4991477;28;20026;-63
2024/02/06 06:50:26;;;;;;;34.58;17.50;;;;;;;8.03;100.00;101304.06;4993747;28;20495;-63
2024/02/06 06:52:52;;;;;;;38.55;16.73;;;;;;;8.05;100.00;101308.19;4992561;28;20356;-63
2024/02/06 06:55:17;;;;;;;47.83;21.30;;;;;;;8.08;100.00;101310.56;4997042;28;20483;-63
2024/02/06 06:57:43;;;;;;;47.45;22.60;;;;;;;8.11;100.00;101299.97;4990037;28;20025;-63
2024/02/06 07:00:13;;;;;;;49.17;22.40;;;;;;;8.16;100.00;101305.66;5000916;28;20100;-63
2024/02/06 07:02:39;;;;;;;43.03;20.90;;;;;;;8.17;100.00;101307.31;4997270;28;20149;-63
2024/02/06 07:05:11;;;;;;;34.03;18.83;;;;;;;8.16;100.00;101307.44;4981709;28;20026;-63
2024/02/06 07:07:37;;;;;;;34.00;17.58;;;;;;;8.14;100.00;101310.13;4980876;28;20038;-63
2024/02/06 07:10:04;;;;;;;36.88;17.15;;;;;;;8.15;100.00;101314.38;4999679;28;20038;-63
2024/02/06 07:12:29;;;;;;;34.08;17.27;;;;;;;8.16;100.00;101316.03;4989379;28;20035;-63
2024/02/06 07:14:54;;;;;;;34.17;17.40;;;;;;;8.18;100.00;101311.56;4992883;28;20385;-63
2024/02/06 07:17:20;;;;;;;36.30;17.50;;;;;;;8.17;100.00;101309.91;4990062;28;20038;-63
2024/02/06 07:19:45;;;;;;;35.28;17.27;;;;;;;8.16;100.00;101316.03;4991260;28;20065;-63
2024/02/06 07:22:11;;;;;;;39.38;17.25;;;;;;;8.16;100.00;101323.84;4996351;28;20085;-63
2024/02/06 07:24:36;;;;;;;25.45;14.30;;;;;;;8.17;100.00;101316.88;4989060;28;20038;-63
2024/02/06 07:27:02;;;;;;;38.38;16.60;;;;;;;8.18;100.00;101321.13;4997112;28;20026;-63
2024/02/06 07:29:27;;;;;;;32.30;16.90;;;;;;;8.20;100.00;101312.31;4991944;28;20081;-64
2024/02/06 07:31:53;;;;;;;35.35;17.05;;;;;;;8.25;100.00;101314.56;4994688;28;20065;-63
2024/02/06 07:34:21;;;;;;;35.05;15.82;;;;;;;8.30;100.00;101317.66;5006909;28;20482;-63
2024/02/06 07:36:47;;;;;;;30.10;16.65;;;;;;;8.33;100.00;101314.88;4988439;28;20133;-62
2024/02/06 07:39:13;;;;;;;27.60;15.40;;;;;;;8.36;100.00;101312.06;4996685;28;20109;-63
2024/02/06 07:41:38;;;;;;;32.67;16.40;;;;;;;8.40;100.00;101307.50;4997989;28;20030;-63
2024/02/06 07:44:04;;;;;;;29.38;15.57;;;;;;;8.42;100.00;101309.03;4988908;28;20168;-63
2024/02/06 07:46:30;;;;;;;35.75;16.27;;;;;;;8.42;100.00;101311.66;4983783;28;20125;-63
2024/02/06 07:48:56;;;;;;;28.52;15.93;;;;;;;8.43;100.00;101302.09;4989570;28;20169;-62
2024/02/06 07:51:23;;;;;;;34.63;16.02;;;;;;;8.44;100.00;101312.38;4991069;28;20045;-63
2024/02/06 07:53:49;;;;;;;25.98;14.50;;;;;;;8.46;100.00;101318.28;5002544;28;20556;-63
2024/02/06 07:56:16;;;;;;;33.70;14.77;;;;;;;8.46;100.00;101317.44;5000994;28;20108;-63
2024/02/06 07:58:41;;;;;;;30.38;15.40;;;;;;;8.45;100.00;101318.38;4998903;28;20029;-62
2024/02/06 08:01:06;;;;;;;28.80;15.20;;;;;;;8.45;100.00;101316.63;4974690;28;20554;-62
2024/02/06 08:03:32;;;;;;;27.20;16.05;;;;;;;8.43;100.00;101313.31;4992394;28;20026;-62
2024/02/06 08:05:57;;;;;;;27.90;15.68;;;;;;;8.44;100.00;101327.13;4998164;28;20034;-62
2024/02/06 08:08:24;;;;;;;29.90;15.00;;;;;;;8.51;100.00;101316.16;5000679;28;20065;-62
2024/02/06 08:10:50;;;;;;;32.00;15.95;;;;;;;8.55;100.00;101316.75;5000455;28;20181;-62
2024/02/06 08:13:16;;;;;;;34.08;16.15;;;;;;;8.58;100.00;101314.78;4982329;28;20438;-62
2024/02/06 08:15:41;;;;;;;26.90;14.27;;;;;;;8.61;100.00;101321.50;4999717;28;20018;-62
2024/02/06 08:18:07;;;;;;;26.52;14.85;;;;;;;8.63;100.00;101327.44;5003152;28;20101;-62
2024/02/06 08:20:33;;;;;;;31.10;14.93;;;;;;;8.63;100.00;101327.44;5001289;28;20030;-62
2024/02/06 08:22:58;;;;;;;35.67;16.30;;;;;;;8.63;100.00;101323.06;4990593;28;20090;-59
2024/02/06 08:25:25;;;;;;;37.92;16.02;;;;;;;8.61;100.00;101321.50;4996481;28;20062;-60
2024/02/06 08:27:51;;;;;;;30.20;15.73;;;;;;;8.63;100.00;101320.47;5001298;28;20034;-59
2024/02/06 08:30:17;;;;;;;30.25;15.80;;;;;;;8.64;100.00;101316.09;4995778;28;20554;-59
2024/02/06 08:32:42;;;;;;;28.45;14.32;;;;;;;8.64;100.00;101313.50;4998560;28;20066;-60
2024/02/06 08:35:08;;;;;;;27.60;15.23;;;;;;;8.66;100.00;101322.00;4998196;28;20058;-60
2024/02/06 08:37:34;;;;;;;36.20;16.73;;;;;;;8.69;100.00;101319.19;4999378;28;20175;-61
2024/02/06 08:39:59;;;;;;;31.00;16.20;;;;;;;8.69;100.00;101318.38;4994467;28;23558;-60
2024/02/06 08:42:25;;;;;;;28.15;14.32;;;;;;;8.66;100.00;101314.22;5000737;28;20030;-60
2024/02/06 08:44:50;;;;;;;33.10;15.25;;;;;;;8.62;100.00;101328.38;5000511;28;20037;-60
2024/02/06 08:47:16;;;;;;;30.85;15.35;;;;;;;8.57;100.00;101320.06;4993769;28;20445;-61
2024/02/06 08:49:41;;;;;;;25.20;14.43;;;;;;;8.57;100.00;101309.69;4999211;28;20042;-60
2024/02/06 08:52:07;;;;;;;29.92;15.57;;;;;;;8.58;100.00;101316.53;4996116;28;20034;-60
2024/02/06 08:54:32;;;;;;;33.13;15.00;;;;;;;8.61;100.00;101311.94;4996094;28;20037;-60
2024/02/06 08:56:58;;;;;;;35.85;15.70;;;;;;;8.64;100.00;101316.09;4996745;28;20084;-62
2024/02/06 08:59:24;;;;;;;29.77;14.90;;;;;;;8.67;100.00;101315.06;4995771;28;20050;-62
2024/02/06 09:01:49;;;;;;;33.42;14.68;;;;;;;8.65;100.00;101305.59;4979650;28;20505;-63
2024/02/06 09:04:15;;;;;;;30.80;16.13;;;;;;;8.71;100.00;101311.28;4996508;28;20104;-63
2024/02/06 09:06:40;;;;;;;31.63;15.00;;;;;;;8.72;100.00;101313.78;4998248;28;20435;-62
2024/02/06 09:09:06;;;;;;;28.98;15.75;;;;;;;8.75;100.00;101313.56;4996018;28;20042;-62
2024/02/06 09:11:32;;;;;;;27.42;16.17;;;;;;;8.80;100.00;101310.63;4998107;28;20049;-62
2024/02/06 09:13:58;;;;;;;30.02;15.57;;;;;;;8.82;100.00;101306.97;4998169;28;20084;-62
2024/02/06 09:16:23;;;;;;;28.25;15.00;;;;;;;8.84;100.00;101318.09;4999002;28;20030;-62
2024/02/06 09:18:49;;;;;;;34.30;14.95;;;;;;;8.83;100.00;101311.22;4998775;28;20042;-63
2024/02/06 09:21:16;;;;;;;30.33;13.20;;;;;;;8.79;100.00;101309.78;4996109;28;20529;-64
2024/02/06 09:23:42;;;;;;;31.15;15.02;;;;;;;8.76;100.00;101323.00;4997074;28;20038;-64
2024/02/06 09:26:10;;;;;;;26.98;15.93;;;;;;;8.74;100.00;101316.25;4999021;28;20389;-64
2024/02/06 09:28:36;;;;;;;28.00;14.90;;;;;;;8.68;100.00;101312.34;4999180;28;20113;-64
2024/02/06 09:31:02;;;;;;;27.42;14.00;;;;;;;8.69;100.00;101314.00;4999447;28;20042;-64
2024/02/06 09:33:28;;;;;;;27.27;14.02;;;;;;;8.66;100.00;101306.44;4987660;28;20033;-64
2024/02/06 09:35:53;;;;;;;28.92;14.68;;;;;;;8.63;100.00;101315.28;4992011;28;20421;-63
2024/02/06 09:38:19;;;;;;;24.65;12.85;;;;;;;8.61;100.00;101308.53;5002907;28;20054;-64
2024/02/06 09:40:46;;;;;;;26.00;13.80;;;;;;;8.62;100.00;101305.81;5008602;28;20030;-64
2024/02/06 09:43:13;;;;;;;28.45;13.35;;;;;;;8.62;100.00;101313.63;5001337;28;20390;-64
2024/02/06 09:45:39;;;;;;;30.55;13.30;;;;;;;8.61;100.00;101316.31;5002659;28;20040;-65
2024/02/06 09:48:06;;;;;;;29.52;13.70;;;;;;;8.59;100.00;101323.41;5003193;28;20046;-65
2024/02/06 09:50:31;;;;;;;30.95;15.65;;;;;;;8.59;100.00;101324.22;5004947;28;20442;-65
2024/02/06 09:53:00;;;;;;;28.73;15.05;;;;;;;8.59;100.00;101324.22;4995498;28;20117;-64
2024/02/06 09:55:26;;;;;;;28.42;14.00;;;;;;;8.62;100.00;101328.38;4999406;28;20031;-65
2024/02/06 09:57:52;;;;;;;29.08;14.13;;;;;;;8.63;100.00;101332.63;5000185;28;20096;-65
2024/02/06 10:00:20;;;;;;;33.42;14.40;;;;;;;8.62;100.00;101339.59;4977588;28;20046;-65
2024/02/06 10:02:48;;;;;;;30.90;15.93;;;;;;;8.64;100.00;101347.28;5000167;28;20037;-65
2024/02/06 10:05:18;;;;;;;31.25;15.15;;;;;;;8.64;100.00;101347.28;4994780;28;20056;-65
2024/02/06 10:07:47;;;;;;;28.52;14.30;;;;;;;8.63;100.00;101340.41;4992641;28;20482;-63
2024/02/06 10:10:14;;;;;;;28.80;14.50;;;;;;;8.67;100.00;101341.84;5003217;28;20030;-63
2024/02/06 10:12:42;;;;;;;32.20;16.98;;;;;;;8.71;100.00;101342.47;4997611;28;20121;-63
2024/02/06 10:15:10;;;;;;;31.63;15.48;;;;;;;8.79;100.00;101333.19;4992960;28;20045;-64
2024/02/06 10:17:39;;;;;;;23.95;13.38;;;;;;;8.83;100.00;101334.63;4995544;28;20482;-63
2024/02/06 10:20:08;;;;;;;29.63;15.10;;;;;;;8.88;100.00;101329.91;4999405;28;20105;-64
2024/02/06 10:22:34;;;;;;;31.65;15.40;;;;;;;8.92;100.00;101333.94;4990803;28;20481;-64
2024/02/06 10:25:01;;;;;;;35.47;16.00;;;;;;;8.93;100.00;101340.81;4996974;28;23576;-63
2024/02/06 10:27:27;;;;;;;33.05;15.32;;;;;;;9.00;100.00;101338.56;4982203;28;20385;-63
2024/02/06 10:30:06;;;;;;;31.75;13.88;;;;;;;9.04;100.00;101339.16;4993583;28;20084;-63
2024/02/06 10:32:36;;;;;;;33.50;15.38;;;;;;;9.07;100.00;101342.38;4988640;28;20030;-63
2024/02/06 10:35:06;;;;;;;40.78;16.38;;;;;;;9.09;100.00;101335.28;4993131;28;20030;-63
2024/02/06 10:37:37;;;;;;;32.97;15.80;;;;;;;9.13;100.00;101347.13;5000559;28;20042;-63
2024/02/06 10:40:07;;;;;;;35.55;15.55;;;;;;;9.16;100.00;101343.44;4990488;28;20045;-62
2024/02/06 10:42:33;;;;;;;46.10;19.45;;;;;;;9.16;100.00;101328.69;4975020;28;20054;-63
2024/02/06 10:44:59;;;;;;;49.25;20.83;;;;;;;9.23;100.00;101326.47;4993122;28;20481;-62
2024/02/06 10:47:25;;;;;;;48.63;21.48;;;;;;;9.29;100.00;101318.19;4991425;28;20038;-62
2024/02/06 10:50:05;;;;;;;54.55;22.25;;;;;;;9.42;100.00;101324.13;4990682;28;20470;-63
2024/02/06 10:52:30;;;;;;;55.40;23.73;;;;;;;9.49;100.00;101319.28;4996821;28;20416;-63
2024/02/06 10:54:56;;;;;;;59.92;26.05;;;;;;;9.60;100.00;101317.50;4994911;28;20540;-63
2024/02/06 10:57:25;;;;;;;63.85;27.00;;;;;;;9.73;100.00;101316.59;4997669;28;20482;-63
2024/02/06 10:59:56;;;;;;;58.55;26.67;;;;;;;9.79;100.00;101323.91;4989217;28;20034;-64
2024/02/06 11:02:29;;;;;;;61.75;24.75;;;;;;;9.79;100.00;101316.09;4992579;28;20108;-63
2024/02/06 11:05:15;;;;;;;59.65;25.83;;;;;;;9.83;100.00;101307.94;4991294;28;20493;-63